createdAt,value
2023-01-26T00:02:40.961Z,101260.56
2023-01-26T00:05:43.763Z,101252.06
2023-01-26T00:08:51.647Z,101269.16
2023-01-26T00:11:54.135Z,101282.00
2023-01-26T00:14:56.538Z,101246.91
2023-01-26T00:17:59.873Z,101257.22
2023-01-26T00:21:03.157Z,101241.81
2023-01-26T00:24:06.063Z,101265.72
2023-01-26T00:27:08.460Z,101228.91
2023-01-26T00:30:13.846Z,101233.16
2023-01-26T00:33:16.474Z,101256.38
2023-01-26T00:36:19.529Z,101227.22
2023-01-26T00:39:22.243Z,101235.75
2023-01-26T00:42:24.942Z,101250.31
2023-01-26T00:45:27.977Z,101246.94
2023-01-26T00:48:30.345Z,101220.38
2023-01-26T00:51:32.660Z,101222.91
2023-01-26T00:54:35.209Z,101238.31
2023-01-26T00:57:37.616Z,101228.97
2023-01-26T01:00:40.717Z,101234.97
2023-01-26T01:03:43.267Z,101204.16
2023-01-26T01:06:46.292Z,101228.09
2023-01-26T01:09:48.680Z,101229.81
2023-01-26T01:12:51.104Z,101172.44
2023-01-26T01:15:53.809Z,101217.88
2023-01-26T01:18:56.869Z,101217.03
2023-01-26T01:21:59.905Z,101178.50
2023-01-26T01:25:03.124Z,101215.28
2023-01-26T01:28:05.586Z,101219.59
2023-01-26T01:31:11.467Z,101181.06
2023-01-26T01:34:14.350Z,101210.16
2023-01-26T01:37:18.195Z,101199.88
2023-01-26T01:40:21.284Z,101200.72
2023-01-26T01:43:25.041Z,101187.06
2023-01-26T01:46:34.036Z,101164.78
2023-01-26T01:49:52.813Z,101189.59
2023-01-26T01:52:56.862Z,101163.09
2023-01-26T01:56:05.650Z,101179.31
2023-01-26T01:59:10.649Z,101185.28
2023-01-26T02:02:14.746Z,101151.91
2023-01-26T02:05:26.923Z,101184.44
2023-01-26T02:08:38.578Z,101146.78
2023-01-26T02:11:45.485Z,101160.50
2023-01-26T02:14:49.140Z,101165.69
2023-01-26T02:17:52.662Z,101165.75
2023-01-26T02:21:00.889Z,101167.50
2023-01-26T02:24:09.406Z,101162.38
2023-01-26T02:27:11.869Z,101130.69
2023-01-26T02:30:17.616Z,101121.28
2023-01-26T02:33:25.579Z,101100.75
2023-01-26T02:36:32.854Z,101123.03
2023-01-26T02:39:48.839Z,101111.03
2023-01-26T02:42:54.309Z,101078.56
2023-01-26T02:45:56.756Z,101135.84
2023-01-26T02:49:17.792Z,101096.50
2023-01-26T02:52:28.760Z,101128.19
2023-01-26T02:55:38.650Z,101088.81
2023-01-26T02:58:44.043Z,101073.44
2023-01-26T03:01:49.761Z,101073.41
2023-01-26T03:04:53.468Z,101059.75
2023-01-26T03:07:56.279Z,101086.28
2023-01-26T03:11:02.295Z,101071.75
2023-01-26T03:14:04.678Z,101082.03
2023-01-26T03:17:07.191Z,101058.91
2023-01-26T03:20:29.032Z,101065.75
2023-01-26T03:23:49.965Z,101034.13
2023-01-26T03:27:12.384Z,101047.84
2023-01-26T03:30:18.482Z,101073.50
2023-01-26T03:33:22.913Z,101042.69
2023-01-26T03:36:25.664Z,101041.03
2023-01-26T03:39:46.979Z,101073.50
2023-01-26T03:43:08.966Z,101076.06
2023-01-26T03:46:29.829Z,101041.03
2023-01-26T03:49:50.789Z,101031.59
2023-01-26T03:53:11.391Z,101059.81
2023-01-26T03:56:23.165Z,101035.91
2023-01-26T03:59:39.642Z,101071.78
2023-01-26T04:03:08.972Z,101043.56
2023-01-26T04:06:29.835Z,101062.41
2023-01-26T04:09:32.930Z,101042.72
2023-01-26T04:12:35.469Z,101028.22
2023-01-26T04:16:10.974Z,101041.00
2023-01-26T04:19:31.967Z,101050.41
2023-01-26T04:22:48.097Z,101067.47
2023-01-26T04:25:52.023Z,101032.44
2023-01-26T04:28:54.674Z,101054.69
2023-01-26T04:31:57.454Z,101043.59
2023-01-26T04:35:00.978Z,101051.28
2023-01-26T04:38:04.257Z,101053.00
2023-01-26T04:41:08.125Z,101007.69
2023-01-26T04:44:17.908Z,101046.13
2023-01-26T04:47:20.697Z,101044.44
2023-01-26T04:50:23.327Z,101017.09
2023-01-26T04:53:27.035Z,101039.31
2023-01-26T04:56:32.403Z,101043.59
2023-01-26T04:59:35.921Z,101012.78
2023-01-26T05:02:40.333Z,101031.59
2023-01-26T05:05:43.900Z,101015.38
2023-01-26T05:08:46.656Z,101041.00
2023-01-26T05:11:49.378Z,100987.19
2023-01-26T05:15:27.172Z,101016.22
2023-01-26T05:18:50.178Z,101053.00
2023-01-26T05:22:12.597Z,101023.94
2023-01-26T05:25:20.513Z,101053.81
2023-01-26T05:28:30.363Z,101047.88
2023-01-26T05:31:32.954Z,101017.06
2023-01-26T05:34:35.349Z,101010.19
2023-01-26T05:37:39.344Z,101054.69
2023-01-26T05:40:42.421Z,101019.59
2023-01-26T05:43:45.446Z,101044.44
2023-01-26T05:47:08.105Z,101046.16
2023-01-26T05:50:11.506Z,101046.97
2023-01-26T05:53:16.534Z,101048.69
2023-01-26T05:56:19.304Z,101048.69
2023-01-26T05:59:26.692Z,101026.44
2023-01-26T06:02:29.292Z,101052.97
2023-01-26T06:05:31.838Z,101029.03
2023-01-26T06:08:35.486Z,101024.75
2023-01-26T06:12:04.366Z,101023.91
2023-01-26T06:15:21.771Z,101018.75
2023-01-26T06:18:24.997Z,101029.88
2023-01-26T06:21:31.289Z,101045.28
2023-01-26T06:24:34.537Z,101046.13
2023-01-26T06:27:37.199Z,100994.84
2023-01-26T06:30:47.848Z,101043.59
2023-01-26T06:33:51.273Z,101032.44
2023-01-26T06:36:53.968Z,101035.91
2023-01-26T06:40:02.655Z,101026.50
2023-01-26T06:43:05.259Z,101035.91
2023-01-26T06:46:08.449Z,101010.25
2023-01-26T06:49:11.038Z,101035.06
2023-01-26T06:52:22.580Z,101047.00
2023-01-26T06:55:36.471Z,101026.53
2023-01-26T06:59:01.948Z,101020.53
2023-01-26T07:02:27.376Z,101000.91
2023-01-26T07:05:29.875Z,101015.44
2023-01-26T07:08:32.346Z,101012.00
2023-01-26T07:11:34.926Z,101013.72
2023-01-26T07:14:37.360Z,100985.53
2023-01-26T07:17:40.183Z,101006.06
2023-01-26T07:20:42.929Z,100997.47
2023-01-26T07:23:46.440Z,100966.75
2023-01-26T07:26:48.845Z,100965.88
2023-01-26T07:29:51.405Z,101001.78
2023-01-26T07:32:54.255Z,100994.94
2023-01-26T07:35:57.314Z,100970.13
2023-01-26T07:38:59.646Z,100973.56
2023-01-26T07:42:02.201Z,101006.00
2023-01-26T07:45:22.344Z,101004.31
2023-01-26T07:48:24.776Z,100978.66
2023-01-26T07:51:27.608Z,100959.00
2023-01-26T07:54:30.044Z,100991.41
2023-01-26T07:57:34.345Z,100993.16
2023-01-26T08:00:38.203Z,100992.25
2023-01-26T08:03:41.329Z,100999.06
2023-01-26T08:06:43.917Z,100977.69
2023-01-26T08:09:46.993Z,100977.63
2023-01-26T08:12:49.413Z,100994.66
2023-01-26T08:15:51.810Z,100961.38
2023-01-26T08:18:54.405Z,100993.78
2023-01-26T08:21:57.715Z,100993.63
2023-01-26T08:25:00.122Z,100981.66
2023-01-26T08:28:03.460Z,100959.47
2023-01-26T08:31:14.389Z,100965.44
2023-01-26T08:34:17.045Z,100986.81
2023-01-26T08:37:19.443Z,100934.75
2023-01-26T08:40:21.921Z,100963.78
2023-01-26T08:43:24.682Z,100931.38
2023-01-26T08:46:27.070Z,100994.53
2023-01-26T08:49:29.587Z,100995.25
2023-01-26T08:52:32.281Z,100985.00
2023-01-26T08:55:35.659Z,100993.53
2023-01-26T08:58:38.266Z,100989.31
2023-01-26T09:01:40.702Z,100961.97
2023-01-26T09:04:43.154Z,100990.91
2023-01-26T09:07:45.754Z,100965.31
2023-01-26T09:10:48.392Z,100992.56
2023-01-26T09:13:56.706Z,100961.03
2023-01-26T09:16:59.315Z,100963.53
2023-01-26T09:20:02.180Z,100934.47
2023-01-26T09:23:04.670Z,100986.41
2023-01-26T09:26:07.140Z,100984.56
2023-01-26T09:29:09.542Z,100957.22
2023-01-26T09:32:11.960Z,100981.94
2023-01-26T09:35:15.378Z,100946.91
2023-01-26T09:38:18.012Z,100971.56
2023-01-26T09:41:29.608Z,100973.09
2023-01-26T09:44:47.605Z,100958.81
2023-01-26T09:47:49.917Z,100969.94
2023-01-26T09:51:01.813Z,100962.09
2023-01-26T09:54:10.097Z,100963.13
2023-01-26T09:57:16.812Z,100954.22
2023-01-26T10:00:22.307Z,100953.91
2023-01-26T10:03:47.477Z,100937.72
2023-01-26T10:06:53.714Z,100924.91
2023-01-26T10:10:29.666Z,100948.69
2023-01-26T10:13:32.250Z,100920.44
2023-01-26T10:16:34.903Z,100923.00
2023-01-26T10:19:45.856Z,100901.41
2023-01-26T10:22:54.814Z,100927.59
2023-01-26T10:26:16.253Z,100896.72
2023-01-26T10:29:19.075Z,100905.53
2023-01-26T10:32:22.243Z,100921.59
2023-01-26T10:35:25.885Z,100893.50
2023-01-26T10:38:39.957Z,100888.41
2023-01-26T10:42:00.312Z,100880.25
2023-01-26T10:45:06.898Z,100875.81
2023-01-26T10:48:20.437Z,100902.81
2023-01-26T10:51:33.549Z,100862.47
2023-01-26T10:54:37.119Z,100891.16
2023-01-26T10:57:41.916Z,100849.56
2023-01-26T11:00:44.530Z,100878.13
2023-01-26T11:04:12.445Z,100868.69
2023-01-26T11:07:28.542Z,100871.44
2023-01-26T11:10:32.818Z,100871.94
2023-01-26T11:13:35.520Z,100835.59
2023-01-26T11:16:38.481Z,100860.09
2023-01-26T11:20:07.393Z,100851.53
2023-01-26T11:23:39.495Z,100850.75
2023-01-26T11:26:47.866Z,100850.38
2023-01-26T11:29:56.160Z,100848.41
2023-01-26T11:33:20.695Z,100838.06
2023-01-26T11:36:48.505Z,100839.66
2023-01-26T11:40:26.663Z,100819.19
2023-01-26T11:43:41.440Z,100828.53
2023-01-26T11:47:12.869Z,100818.22
2023-01-26T11:50:23.644Z,100820.53
2023-01-26T11:53:54.933Z,100821.13
2023-01-26T11:57:13.819Z,100818.47
2023-01-26T12:00:29.963Z,100789.63
2023-01-26T12:03:51.055Z,100775.06
2023-01-26T12:07:02.221Z,100798.81
2023-01-26T12:10:07.209Z,100787.66
2023-01-26T12:13:28.149Z,100783.75
2023-01-26T12:16:40.306Z,100784.47
2023-01-26T12:19:55.588Z,100786.31
2023-01-26T12:23:03.600Z,100784.91
2023-01-26T12:26:12.097Z,100791.75
2023-01-26T12:29:24.035Z,100783.25
2023-01-26T12:32:27.301Z,100756.94
2023-01-26T12:35:48.081Z,100786.09
2023-01-26T12:39:23.725Z,100769.16
2023-01-26T12:42:58.150Z,100742.00
2023-01-26T12:46:40.584Z,100737.72
2023-01-26T12:50:10.959Z,100746.16
2023-01-26T12:54:04.582Z,100775.00
2023-01-26T12:57:20.580Z,100731.41
2023-01-26T13:00:38.024Z,100769.84
2023-01-26T13:04:28.861Z,100739.34
2023-01-26T13:08:40.183Z,100764.13
2023-01-26T13:12:43.930Z,100763.25
2023-01-26T13:16:07.310Z,100735.22
2023-01-26T13:20:04.088Z,100758.22
2023-01-26T13:23:42.814Z,100760.84
2023-01-26T13:27:14.530Z,100762.53
2023-01-26T13:30:37.389Z,100765.25
2023-01-26T13:33:53.708Z,100724.31
2023-01-26T13:37:17.312Z,100756.75
2023-01-26T13:40:52.568Z,100753.38
2023-01-26T13:44:48.840Z,100757.66
2023-01-26T13:48:25.527Z,100756.06
2023-01-26T13:51:44.497Z,100749.22
2023-01-26T13:55:31.636Z,100744.19
2023-01-26T13:58:35.146Z,100722.03
2023-01-26T14:01:46.282Z,100754.41
2023-01-26T14:05:18.929Z,100747.63
2023-01-26T14:08:52.456Z,100758.81
2023-01-26T14:12:38.832Z,100758.84
2023-01-26T14:16:14.383Z,100756.31
2023-01-26T14:19:55.578Z,100727.34
2023-01-26T14:23:30.001Z,100694.06
2023-01-26T14:26:33.222Z,100700.06
2023-01-26T14:29:39.162Z,100757.22
2023-01-26T14:33:01.726Z,100752.88
2023-01-26T14:36:37.076Z,100750.38
2023-01-26T14:39:49.774Z,100749.56
2023-01-26T14:43:18.284Z,100711.19
2023-01-26T14:47:48.562Z,100716.34
2023-01-26T14:51:08.679Z,100750.44
2023-01-26T14:54:39.510Z,100743.63
2023-01-26T14:57:57.967Z,100756.44
2023-01-26T15:02:30.182Z,100755.56
2023-01-26T15:05:38.315Z,100735.13
2023-01-26T15:08:51.866Z,100709.59
2023-01-26T15:12:17.574Z,100703.63
2023-01-26T15:16:08.472Z,100732.56
2023-01-26T15:19:55.793Z,100711.34
2023-01-26T15:37:39.635Z,100735.25
2023-01-26T15:41:40.265Z,100702.03
2023-01-26T15:50:48.234Z,100736.97
2023-01-26T15:53:50.710Z,100740.38
2023-01-26T15:56:53.105Z,100739.53
2023-01-26T16:03:59.946Z,100727.66
2023-01-26T16:08:06.412Z,100754.97
2023-01-26T16:11:12.676Z,100757.53
2023-01-26T16:14:15.320Z,100743.88
2023-01-26T16:17:18.523Z,100762.63
2023-01-26T16:20:21.069Z,100757.50
2023-01-26T16:23:27.537Z,100760.09
2023-01-26T16:26:32.268Z,100718.31
2023-01-26T16:30:24.680Z,100725.97
2023-01-26T17:11:41.169Z,100691.81
2023-01-26T17:15:40.535Z,100707.16
2023-01-26T17:31:11.108Z,100727.66
2023-01-26T17:50:24.519Z,100710.50
2023-01-26T17:54:09.012Z,100708.81
2023-01-26T18:08:06.414Z,100697.59
2023-01-26T18:11:28.096Z,100689.94
2023-01-26T18:15:07.666Z,100693.34
2023-01-26T18:19:31.355Z,100683.13
2023-01-26T18:23:28.546Z,100684.81
2023-01-26T18:36:03.828Z,100683.00
2023-01-26T19:22:12.609Z,100638.69
2023-01-26T19:25:36.028Z,100652.34
2023-01-26T19:43:38.967Z,100654.72
2023-01-26T19:53:15.555Z,100625.03
2023-01-26T19:56:39.327Z,100641.19
2023-01-26T20:00:27.500Z,100643.72
2023-01-26T20:04:40.097Z,100643.72
2023-01-26T20:07:52.745Z,100636.03
2023-01-26T20:11:28.105Z,100598.44
2023-01-26T20:15:30.857Z,100598.44
2023-01-26T20:19:16.702Z,100619.88
2023-01-26T20:22:54.658Z,100562.06
2023-01-26T20:41:28.427Z,100627.50
2023-01-26T20:54:52.384Z,100608.81
2023-01-26T20:57:56.068Z,100619.78
2023-01-26T21:02:01.878Z,100620.59
2023-01-26T21:29:14.865Z,100607.91
2023-01-26T21:33:36.597Z,100573.00
2023-01-26T21:57:49.994Z,100584.97
2023-01-26T22:01:22.513Z,100566.22
2023-01-26T22:05:28.015Z,100557.75
2023-01-26T22:15:46.478Z,100578.94
2023-01-26T22:19:11.344Z,100567.91
2023-01-26T22:33:05.005Z,100557.69
2023-01-26T22:40:22.947Z,100520.28
2023-01-26T22:44:11.629Z,100550.03
2023-01-26T22:53:49.789Z,100528.78
2023-01-26T22:57:07.779Z,100493.09
2023-01-26T23:00:47.086Z,100522.91
2023-01-26T23:20:59.370Z,100502.56
2023-01-26T23:24:26.720Z,100490.69
2023-01-26T23:27:29.176Z,100499.22
2023-01-26T23:30:36.513Z,100464.28
2023-01-26T23:39:18.432Z,100482.19
2023-01-26T23:47:58.329Z,100482.25
2023-01-26T23:51:04.061Z,100483.13
2023-01-26T23:54:46.937Z,100476.31
